METAR Data
IDs: Format: Raw Decoded Include TAF

Data at: 0243 UTC 25 Jan 2020

PAGK 250153Z AUTO 30005KT 10SM CLR M19/M22 A2942 RMK AO2 SLP024 T11891222 TSNO
PAGK 242353Z AUTO 32007KT 10SM OVC110 M16/M19 A2939 RMK SLP010 60000 I6001 T11611194 11150 21217 53004 TSNO VIA AUTODIAL
PAGK 242253Z AUTO 33010KT 10SM OVC110 M16/M19 A2938 RMK AO2 SLP006 T11561189 TSNO
PAGK 242153Z AUTO 34006KT 10SM OVC110 M16/M19 A2938 RMK AO2 SLP006 T11561189 TSNO
PAGK 242053Z AUTO 32005KT 10SM FEW027 BKN110 M17/M20 A2938 RMK AO2 SLP009 60000 I3001 T11721200 50004 TSNO
PAGK 242032Z AUTO 30005KT 10SM SCT027 SCT110 M18/M21 A2937 RMK AO2 T11781206 TSNO
PAGK 242019Z AUTO 30006KT 10SM FEW020 BKN026 OVC120 M18/M20 A2938 RMK AO2 T11781200 TSNO
PAGK 241953Z AUTO 33005KT 10SM BKN110 M19/M22 A2938 RMK AO2 SLP012 T11941217 TSNO
PAGK 241853Z AUTO 00000KT 10SM BKN110 M21/M23 A2938 RMK AO2 SNB1758E24 SLP010 P0000 I1001 T12061228 TSNO
PAGK 241832Z AUTO 34003KT 10SM SCT021 BKN055 BKN100 M19/M21 A2937 RMK AO2 SNB1758E24 P0000 I1001 T11891211 TSNO
PAGK 241817Z AUTO 36004KT 3SM -SN BKN025 OVC055 M18/M21 A2937 RMK AO2 SNB1758 P0000 T11831211 TSNO
PAGK 241753Z AUTO 00000KT 6SM BR OVC037 M18/M21 A2937 RMK AO2 SNE53 SLP005 P0000 60000 T11831206 11172 21200 53003 TSNO
PAGK 241748Z AUTO 36004KT 5SM -SN OVC035 M18/M21 A2937 RMK AO2 P0000 TSNO
PAGK 241740Z AUTO 05003KT 2 1/2SM -SN BR OVC031 M18/M20 A2937 RMK AO2 P0000 T11781200 TSNO
PAGK 241720Z AUTO 04004KT 1 1/2SM -SN BR OVC024 M18/M20 A2936 RMK AO2 P0000 T11781200 TSNO
PAGK 241710Z AUTO 04004KT 2SM -SN BR OVC026 M18/M20 A2936 RMK AO2 P0000 T11781200 TSNO
PAGK 241653Z AUTO 00000KT 2SM -SN OVC034 M17/M20 A2935 RMK AO2 SNB12 SLP998 P0000 T11721200 TSNO
PAGK 241630Z AUTO 00000KT 4SM -SN SCT023 OVC040 M18/M21 A2935 RMK AO2 SNB12 P0000 T11831211 TSNO
PAGK 241553Z AUTO 00000KT 8SM BKN024 OVC070 M18/M21 A2936 RMK AO2 SLP000 T11831211 TSNO
PAGK 241453Z AUTO 00000KT 6SM BR BKN023 BKN028 M19/M22 A2936 RMK AO2 SLP005 T11941217 58004 TSNO
PAGK 241353Z AUTO 00000KT 10SM BKN026 OVC032 M18/M21 A2937 RMK AO2 SLP003 T11831206 TSNO
PAGK 241253Z AUTO 00000KT 10SM FEW037 BKN050 OVC070 M18/M21 A2938 RMK AO2 SLP007 T11831206 TSNO
PAGK 241153Z AUTO 29004KT 10SM OVC070 M18/M21 A2938 RMK AO2 SLP006 T11781206 11178 21194 58004 TSNO
PAGK 241053Z AUTO 00000KT 10SM OVC065 M18/M21 A2938 RMK AO2 SLP010 T11831206 TSNO
PAGK 240953Z AUTO 05003KT 10SM OVC110 M19/M22 A2939 RMK AO2 SLP013 T11891217 TSNO
PAGK 240853Z AUTO 00000KT 10SM SCT120 M19/M22 A2939 RMK AO2 SLP014 T11941217 411721211 56001 TSNO
PAGK 240753Z AUTO 00000KT 10SM CLR M19/M21 A2939 RMK AO2 SLP013 T11891211 TSNO
PAGK 240653Z AUTO 00000KT 10SM FEW031 SCT065 SCT120 M19/M21 A2939 RMK AO2 SLP014 T11891211 TSNO
PAGK 240553Z AUTO 00000KT 10SM SCT026 M18/M21 A2939 RMK AO2 SLP014 T11831206 11172 21189 53003 TSNO
PAGK 240453Z AUTO 30003KT 10SM BKN027 OVC039 M18/M21 A2939 RMK AO2 SLP012 T11781206 TSNO
PAGK 240420Z AUTO 00000KT 10SM SCT029 BKN120 M18/M21 A2938 RMK AO2 T11781206 TSNO
PAGK 240353Z AUTO 00000KT 10SM OVC029 M18/M21 A2939 RMK AO2 SLP013 T11781206 TSNO
PAGK 240301Z AUTO 00000KT 10SM BKN022 BKN030 M18/M21 A2939 RMK AO2 T11831211 TSNO
PAGK 240253Z AUTO 00000KT 10SM SCT024 M19/M21 A2938 RMK AO2 SLP013 T11891211 55002 TSNO
PAGK 240153Z AUTO 09003KT 10SM FEW120 M18/M21 A2938 RMK AO2 SLP009 T11781206 TSNO
PAGK 240053Z AUTO 00000KT 10SM SCT110 M17/M19 A2939 RMK SLP009 T11721194 TSNO VIA AUTODIAL
PAGK 232353Z AUTO 00000KT 10SM SCT120 M17/M19 A2939 RMK AO2 SLP010 T11721194 11172 21189 58007 TSNO
PAGK 232253Z AUTO 00000KT 10SM BKN110 M17/M19 A2940 RMK AO2 SLP014 T11721194 TSNO
PAGK 232153Z AUTO 00000KT 6SM BR FEW120 M18/M21 A2941 RMK AO2 SLP018 T11831206 TSNO
PAGK 232053Z AUTO 00000KT 10SM FEW028 SCT120 M18/M21 A2941 RMK AO2 SLP019 T11831206 58001 TSNO
PAGK 231953Z AUTO 00000KT 10SM OVC032 M18/M21 A2942 RMK AO2 SLP022 T11831211 TSNO
PAGK 231853Z AUTO 00000KT 10SM OVC031 M19/M22 A2941 RMK AO2 SLP022 T11891217 TSNO
PAGK 231753Z AUTO 00000KT 10SM OVC028 M18/M21 A2941 RMK SNB21E30 SLP020 P0000 60000 I1001 I6002 T11831211 11172 21211 56008 TSNO VIA AUTODIAL
PAGK 231735Z AUTO 00000KT 9SM OVC029 M18/M21 A2941 RMK AO2 SNB21E30 P0000 I1001 T11831211 TSNO
PAGK 231725Z AUTO 01003KT 2 1/2SM -SN OVC029 M19/M22 A2941 RMK AO2 SNB21 P0000 T11891217 TSNO
PAGK 231653Z AUTO 00000KT 10SM OVC031 M19/M22 A2942 RMK AO2 SLP023 T11941217 TSNO
PAGK 231553Z AUTO 35003KT 10SM OVC032 M21/M23 A2942 RMK SLP028 T12061233 TSNO VIA AUTODIAL
PAGK 231453Z AUTO 00000KT 10SM OVC065 M21/M23 A2944 RMK AO2 SLP033 60000 I3001 T12061228 56015 TSNO